Eurocargo Venezia — IBKS — position and weather

sailwx.info

Track history (hours):
 
Tides and Currents Weather Stations Pressure Air Temp Water Temp Dewpoint Dewpoint Depression Visibility Wind Speed Wind Dir Waves Ship Positions

Eurocargo Venezia

Last reported at 2015-May-27 19:31 UTC. Time now 2015-May-27 19:59 UTC.
Position N 44°24' E 008°53'.

Length 200 m; draft 7 m.

Type: Cargo ship. MMSI: 247297200.

Date/timePositionNaut miles runAvg speedWind from/ knotsBaromVisibWave heightAir tempDewpointWater temp
2015-May-27 19:31N 44°24' E 008°53'0 0.0
2015-May-27 18:32N 44°24' E 008°53'0 0.0
2015-May-27 17:31N 44°24' E 008°53'0 0.0
2015-May-27 16:32N 44°24' E 008°53'0 0.0
2015-May-27 15:32N 44°24' E 008°53'0 0.0
2015-May-27 14:31N 44°24' E 008°53'1 0.6
2015-May-27 13:34N 44°24' E 008°54'9 9.0
2015-May-27 12:33N 44°17' E 009°03'1818.3
2015-May-27 11:33N 44°03' E 009°19'1818.2
2015-May-27 10:34N 43°49' E 009°35'1818.3
2015-May-27 09:34N 43°36' E 009°52'1818.4
2015-May-27 08:34N 43°21' E 010°08'1818.2
2015-May-27 07:33N 43°05' E 010°20'2618.1
2015-May-27 06:08N 42°43' E 010°38'15617.9
2015-May-26 21:25N 40°59' E 013°14'1618.2
2015-May-26 20:33N 40°50' E 013°31'1818.2
2015-May-26 19:33N 40°36' E 013°45'1818.0
2015-May-26 18:33N 40°21' E 013°59'9118.2
2015-May-26 13:33N 39°06' E 015°07'1818.0
2015-May-26 12:33N 38°52' E 015°20'1818.0
2015-May-26 11:32N 38°36' E 015°31'1818.1
2015-May-26 10:33N 38°20' E 015°41'1615.7
2015-May-26 09:33N 38°05' E 015°34'1918.0
2015-May-26 08:31N 37°48' E 015°23'2418.1
2015-May-26 07:12N 37°27' E 015°09'3 0.9
2015-May-26 03:33N 37°30' E 015°06'0 0.0
2015-May-26 02:26N 37°30' E 015°06'0 0.0
2015-May-25 23:16N 37°30' E 015°06'4013.6
2015-May-25 20:21N 36°52' E 015°21'1518.9
2015-May-25 19:33N 36°39' E 015°11'1918.8
2015-May-25 18:33N 36°23' E 014°58'1919.1
2015-May-25 17:33N 36°08' E 014°44'1816.8
2015-May-25 16:29N 35°53' E 014°31'0 0.1
2015-May-25 15:27N 35°53' E 014°31'0 0.0
2015-May-25 14:18N 35°53' E 014°31'0 0.0
2015-May-25 13:27N 35°53' E 014°31'0 0.0
2015-May-25 12:33N 35°53' E 014°31'0 0.0
2015-May-25 11:33N 35°53' E 014°31'0 0.0
2015-May-25 09:30N 35°53' E 014°31'0 0.0
2015-May-25 08:33N 35°53' E 014°31'0 0.0
2015-May-25 07:30N 35°53' E 014°31'1 1.0
2015-May-25 06:25N 35°54' E 014°31'1314.3
2015-May-25 05:33N 36°05' E 014°23'1716.6
2015-May-25 04:33N 36°16' E 014°09'1616.6
2015-May-25 03:34N 36°28' E 013°54'1717.3
2015-May-25 02:34N 36°39' E 013°37'1717.1
2015-May-25 01:33N 36°51' E 013°22'7516.8
2015-May-24 21:05N 37°42' E 012°13'916.9
2015-May-24 20:32N 37°48' E 012°04'33317.1
2015-May-24 01:07N 43°02' E 009°39'917.0
2015-May-24 00:33N 43°11' E 009°36'1716.6
2015-May-23 23:33N 43°27' E 009°29'1716.6
2015-May-23 22:33N 43°42' E 009°20'1717.1
2015-May-23 21:33N 43°58' E 009°11'1717.5
2015-May-23 20:33N 44°14' E 009°01'1211.6
2015-May-23 19:31N 44°24' E 008°53'0 0.0
2015-May-23 18:28N 44°24' E 008°53'0 0.0
2015-May-23 17:31N 44°24' E 008°53'0 0.0
2015-May-23 16:31N 44°24' E 008°53'0 0.0
2015-May-23 15:28N 44°24' E 008°53'0 0.0
2015-May-23 14:31N 44°24' E 008°53'0 0.0
2015-May-23 13:31N 44°24' E 008°53'0 0.0
2015-May-23 12:25N 44°24' E 008°53'0 0.0
2015-May-23 11:31N 44°24' E 008°53'0 0.2
2015-May-23 10:33N 44°24' E 008°53'1110.6
2015-May-23 09:33N 44°16' E 009°03'1817.9
2015-May-23 08:33N 44°03' E 009°19'1817.6
2015-May-23 07:33N 43°49' E 009°35'1717.4
2015-May-23 06:33N 43°36' E 009°51'1717.4
2015-May-23 05:33N 43°23' E 010°07'1817.6
2015-May-23 04:33N 43°08' E 010°18'1817.7
2015-May-23 03:31N 42°52' E 010°31'31417.3
2015-May-22 09:23N 39°01' E 015°12'1517.6
2015-May-22 08:30N 38°48' E 015°23'1717.7
2015-May-22 07:33N 38°33' E 015°33'1817.6
2015-May-22 06:33N 38°17' E 015°42'1616.3
2015-May-22 05:33N 38°03' E 015°32'1817.6
2015-May-22 04:33N 37°47' E 015°22'21 4.0
2015-May-21 23:11N 37°30' E 015°06'0 0.0
2015-May-21 20:29N 37°30' E 015°06'0 0.0
2015-May-21 19:11N 37°30' E 015°06'0 0.1
2015-May-21 17:29N 37°30' E 015°06'6014.8
2015-May-21 13:25N 36°30' E 015°03'1618.4
2015-May-21 12:33N 36°16' E 014°52'1818.1
2015-May-21 11:33N 36°02' E 014°39'1110.6
2015-May-21 10:31N 35°53' E 014°31'0 0.0
2015-May-21 09:31N 35°53' E 014°31'0 0.0
2015-May-21 08:31N 35°53' E 014°31'0 0.0
2015-May-21 07:31N 35°53' E 014°31'0 0.0
2015-May-21 06:31N 35°53' E 014°30'0 0.0
2015-May-21 05:31N 35°53' E 014°31'0 0.0
2015-May-21 04:31N 35°53' E 014°31'0 0.0
2015-May-21 03:31N 35°53' E 014°31'0 0.0
2015-May-21 02:25N 35°53' E 014°31'0 0.0
2015-May-21 01:33N 35°53' E 014°31'1211.5
2015-May-21 00:34N 36°02' E 014°39'1818.1
2015-May-20 23:33N 36°17' E 014°52'1818.1
2015-May-20 22:33N 36°32' E 015°05'1918.6
2015-May-20 21:33N 36°48' E 015°17'1817.4
2015-May-20 20:32N 37°05' E 015°24'2518.4
2015-May-20 19:09N 37°27' E 015°08'3 4.2
2015-May-20 18:23N 37°30' E 015°06'0 0.0
2015-May-20 17:29N 37°30' E 015°06'120 7.4
2015-May-20 01:09N 39°29' E 014°47'1917.7
2015-May-20 00:03N 39°45' E 014°32'1217.4
2015-May-19 23:23N 39°54' E 014°23'1917.8
2015-May-19 22:18N 40°10' E 014°09'1418.0
2015-May-19 21:33N 40°21' E 013°59'1818.4
2015-May-19 20:33N 40°36' E 013°45'1818.0
2015-May-19 19:33N 40°51' E 013°31'1818.0
2015-May-19 18:33N 41°01' E 013°12'1818.2
2015-May-19 17:33N 41°12' E 012°52'2018.1
2015-May-19 16:27N 41°23' E 012°30'1618.1
2015-May-19 15:33N 41°35' E 012°15'1817.9
2015-May-19 14:33N 41°47' E 011°57'7817.9
2015-May-19 10:13N 42°40' E 010°41'2018.2
2015-May-19 09:06N 42°58' E 010°27'1018.0
2015-May-19 08:33N 43°07' E 010°22'1818.0
2015-May-19 07:33N 43°24' E 010°14'1110.7
2015-May-19 06:33N 43°34' E 010°18'0 0.4
2015-May-19 05:27N 43°35' E 010°18'0 0.0
2015-May-19 04:33N 43°35' E 010°18'0 0.0
2015-May-19 03:33N 43°35' E 010°18'0 0.0
2015-May-19 02:33N 43°35' E 010°18'0 0.0
2015-May-19 01:33N 43°35' E 010°18'3 2.9
2015-May-19 00:34N 43°32' E 010°17'1514.9
2015-May-18 23:33N 43°32' E 009°56'1717.5
2015-May-18 22:33N 43°45' E 009°40'1817.7
2015-May-18 21:33N 43°58' E 009°23'1817.6
2015-May-18 20:33N 44°12' E 009°08'1515.2
2015-May-18 19:33N 44°24' E 008°55'1 0.9
2015-May-18 18:33N 44°24' E 008°53'0 0.0
2015-May-18 17:33N 44°24' E 008°53'0 0.0
2015-May-18 16:33N 44°24' E 008°53'0 0.0
2015-May-18 15:30N 44°24' E 008°53'0 0.0
2015-May-18 14:30N 44°24' E 008°53'0 0.0
2015-May-18 13:33N 44°24' E 008°53'0 0.0
2015-May-18 12:30N 44°24' E 008°53'0 0.0
2015-May-18 11:33N 44°24' E 008°53'0 0.1
2015-May-18 10:33N 44°24' E 008°53'1010.2
2015-May-18 09:33N 44°17' E 009°03'1818.0
2015-May-18 08:33N 44°03' E 009°19'1818.1
2015-May-18 07:33N 43°49' E 009°36'1818.3
2015-May-18 06:33N 43°36' E 009°52'1817.8
2015-May-18 05:33N 43°22' E 010°07'1818.0
2015-May-18 04:33N 43°06' E 010°20'1818.0
2015-May-18 03:32N 42°50' E 010°32'  
Track history (hours):
 
Tides and Currents Weather Stations Pressure Air Temp Water Temp Dewpoint Dewpoint Depression Visibility Wind Speed Wind Dir Waves Ship Positions

Eurocargo Venezia

Last reported at 2015-May-27 19:31 UTC. Time now 2015-May-27 19:59 UTC.
Position N 44°24' E 008°53'.

Length 200 m; draft 7 m.

Type: Cargo ship. MMSI: 247297200.

Date/timePositionNaut miles runAvg speedWind from/ knotsBaromVisibWave heightAir tempDewpointWater temp
2015-May-27 19:31N 44°24' E 008°53'0 0.0
2015-May-27 18:32N 44°24' E 008°53'0 0.0
2015-May-27 17:31N 44°24' E 008°53'0 0.0
2015-May-27 16:32N 44°24' E 008°53'0 0.0
2015-May-27 15:32N 44°24' E 008°53'0 0.0
2015-May-27 14:31N 44°24' E 008°53'1 0.6
2015-May-27 13:34N 44°24' E 008°54'9 9.0
2015-May-27 12:33N 44°17' E 009°03'1818.3
2015-May-27 11:33N 44°03' E 009°19'1818.2
2015-May-27 10:34N 43°49' E 009°35'1818.3
2015-May-27 09:34N 43°36' E 009°52'1818.4
2015-May-27 08:34N 43°21' E 010°08'1818.2
2015-May-27 07:33N 43°05' E 010°20'2618.1
2015-May-27 06:08N 42°43' E 010°38'15617.9
2015-May-26 21:25N 40°59' E 013°14'1618.2
2015-May-26 20:33N 40°50' E 013°31'1818.2
2015-May-26 19:33N 40°36' E 013°45'1818.0
2015-May-26 18:33N 40°21' E 013°59'9118.2
2015-May-26 13:33N 39°06' E 015°07'1818.0
2015-May-26 12:33N 38°52' E 015°20'1818.0
2015-May-26 11:32N 38°36' E 015°31'1818.1
2015-May-26 10:33N 38°20' E 015°41'1615.7
2015-May-26 09:33N 38°05' E 015°34'1918.0
2015-May-26 08:31N 37°48' E 015°23'2418.1
2015-May-26 07:12N 37°27' E 015°09'3 0.9
2015-May-26 03:33N 37°30' E 015°06'0 0.0
2015-May-26 02:26N 37°30' E 015°06'0 0.0
2015-May-25 23:16N 37°30' E 015°06'4013.6
2015-May-25 20:21N 36°52' E 015°21'1518.9
2015-May-25 19:33N 36°39' E 015°11'1918.8
2015-May-25 18:33N 36°23' E 014°58'1919.1
2015-May-25 17:33N 36°08' E 014°44'1816.8
2015-May-25 16:29N 35°53' E 014°31'0 0.1
2015-May-25 15:27N 35°53' E 014°31'0 0.0
2015-May-25 14:18N 35°53' E 014°31'0 0.0
2015-May-25 13:27N 35°53' E 014°31'0 0.0
2015-May-25 12:33N 35°53' E 014°31'0 0.0
2015-May-25 11:33N 35°53' E 014°31'0 0.0
2015-May-25 09:30N 35°53' E 014°31'0 0.0
2015-May-25 08:33N 35°53' E 014°31'0 0.0
2015-May-25 07:30N 35°53' E 014°31'1 1.0
2015-May-25 06:25N 35°54' E 014°31'1314.3
2015-May-25 05:33N 36°05' E 014°23'1716.6
2015-May-25 04:33N 36°16' E 014°09'1616.6
2015-May-25 03:34N 36°28' E 013°54'1717.3
2015-May-25 02:34N 36°39' E 013°37'1717.1
2015-May-25 01:33N 36°51' E 013°22'7516.8
2015-May-24 21:05N 37°42' E 012°13'916.9
2015-May-24 20:32N 37°48' E 012°04'33317.1
2015-May-24 01:07N 43°02' E 009°39'917.0
2015-May-24 00:33N 43°11' E 009°36'1716.6
2015-May-23 23:33N 43°27' E 009°29'1716.6
2015-May-23 22:33N 43°42' E 009°20'1717.1
2015-May-23 21:33N 43°58' E 009°11'1717.5
2015-May-23 20:33N 44°14' E 009°01'1211.6
2015-May-23 19:31N 44°24' E 008°53'0 0.0
2015-May-23 18:28N 44°24' E 008°53'0 0.0
2015-May-23 17:31N 44°24' E 008°53'0 0.0
2015-May-23 16:31N 44°24' E 008°53'0 0.0
2015-May-23 15:28N 44°24' E 008°53'0 0.0
2015-May-23 14:31N 44°24' E 008°53'0 0.0
2015-May-23 13:31N 44°24' E 008°53'0 0.0
2015-May-23 12:25N 44°24' E 008°53'0 0.0
2015-May-23 11:31N 44°24' E 008°53'0 0.2
2015-May-23 10:33N 44°24' E 008°53'1110.6
2015-May-23 09:33N 44°16' E 009°03'1817.9
2015-May-23 08:33N 44°03' E 009°19'1817.6
2015-May-23 07:33N 43°49' E 009°35'1717.4
2015-May-23 06:33N 43°36' E 009°51'1717.4
2015-May-23 05:33N 43°23' E 010°07'1817.6
2015-May-23 04:33N 43°08' E 010°18'1817.7
2015-May-23 03:31N 42°52' E 010°31'31417.3
2015-May-22 09:23N 39°01' E 015°12'1517.6
2015-May-22 08:30N 38°48' E 015°23'1717.7
2015-May-22 07:33N 38°33' E 015°33'1817.6
2015-May-22 06:33N 38°17' E 015°42'1616.3
2015-May-22 05:33N 38°03' E 015°32'1817.6
2015-May-22 04:33N 37°47' E 015°22'21 4.0
2015-May-21 23:11N 37°30' E 015°06'0 0.0
2015-May-21 20:29N 37°30' E 015°06'0 0.0
2015-May-21 19:11N 37°30' E 015°06'0 0.1
2015-May-21 17:29N 37°30' E 015°06'6014.8
2015-May-21 13:25N 36°30' E 015°03'1618.4
2015-May-21 12:33N 36°16' E 014°52'1818.1
2015-May-21 11:33N 36°02' E 014°39'1110.6
2015-May-21 10:31N 35°53' E 014°31'0 0.0
2015-May-21 09:31N 35°53' E 014°31'0 0.0
2015-May-21 08:31N 35°53' E 014°31'0 0.0
2015-May-21 07:31N 35°53' E 014°31'0 0.0
2015-May-21 06:31N 35°53' E 014°30'0 0.0
2015-May-21 05:31N 35°53' E 014°31'0 0.0
2015-May-21 04:31N 35°53' E 014°31'0 0.0
2015-May-21 03:31N 35°53' E 014°31'0 0.0
2015-May-21 02:25N 35°53' E 014°31'0 0.0
2015-May-21 01:33N 35°53' E 014°31'1211.5
2015-May-21 00:34N 36°02' E 014°39'1818.1
2015-May-20 23:33N 36°17' E 014°52'1818.1
2015-May-20 22:33N 36°32' E 015°05'1918.6
2015-May-20 21:33N 36°48' E 015°17'1817.4
2015-May-20 20:32N 37°05' E 015°24'2518.4
2015-May-20 19:09N 37°27' E 015°08'3 4.2
2015-May-20 18:23N 37°30' E 015°06'0 0.0
2015-May-20 17:29N 37°30' E 015°06'120 7.4
2015-May-20 01:09N 39°29' E 014°47'1917.7
2015-May-20 00:03N 39°45' E 014°32'1217.4
2015-May-19 23:23N 39°54' E 014°23'1917.8
2015-May-19 22:18N 40°10' E 014°09'1418.0
2015-May-19 21:33N 40°21' E 013°59'1818.4
2015-May-19 20:33N 40°36' E 013°45'1818.0
2015-May-19 19:33N 40°51' E 013°31'1818.0
2015-May-19 18:33N 41°01' E 013°12'1818.2
2015-May-19 17:33N 41°12' E 012°52'2018.1
2015-May-19 16:27N 41°23' E 012°30'1618.1
2015-May-19 15:33N 41°35' E 012°15'1817.9
2015-May-19 14:33N 41°47' E 011°57'7817.9
2015-May-19 10:13N 42°40' E 010°41'2018.2
2015-May-19 09:06N 42°58' E 010°27'1018.0
2015-May-19 08:33N 43°07' E 010°22'1818.0
2015-May-19 07:33N 43°24' E 010°14'1110.7
2015-May-19 06:33N 43°34' E 010°18'0 0.4
2015-May-19 05:27N 43°35' E 010°18'0 0.0
2015-May-19 04:33N 43°35' E 010°18'0 0.0
2015-May-19 03:33N 43°35' E 010°18'0 0.0
2015-May-19 02:33N 43°35' E 010°18'0 0.0
2015-May-19 01:33N 43°35' E 010°18'3 2.9
2015-May-19 00:34N 43°32' E 010°17'1514.9
2015-May-18 23:33N 43°32' E 009°56'1717.5
2015-May-18 22:33N 43°45' E 009°40'1817.7
2015-May-18 21:33N 43°58' E 009°23'1817.6
2015-May-18 20:33N 44°12' E 009°08'1515.2
2015-May-18 19:33N 44°24' E 008°55'1 0.9
2015-May-18 18:33N 44°24' E 008°53'0 0.0
2015-May-18 17:33N 44°24' E 008°53'0 0.0
2015-May-18 16:33N 44°24' E 008°53'0 0.0
2015-May-18 15:30N 44°24' E 008°53'0 0.0
2015-May-18 14:30N 44°24' E 008°53'0 0.0
2015-May-18 13:33N 44°24' E 008°53'0 0.0
2015-May-18 12:30N 44°24' E 008°53'0 0.0
2015-May-18 11:33N 44°24' E 008°53'0 0.1
2015-May-18 10:33N 44°24' E 008°53'1010.2
2015-May-18 09:33N 44°17' E 009°03'1818.0
2015-May-18 08:33N 44°03' E 009°19'1818.1
2015-May-18 07:33N 43°49' E 009°36'1818.3
2015-May-18 06:33N 43°36' E 009°52'1817.8
2015-May-18 05:33N 43°22' E 010°07'1818.0
2015-May-18 04:33N 43°06' E 010°20'1818.0
2015-May-18 03:32N 42°50' E 010°32'  

Dump ship's entire track history